sensor_id;sensor_type;location;lat;lon;timestamp;P1;durP1;ratioP1;P2;durP2;ratioP2
79149;SDS011;68563;45.644;13.782;2023-09-07T00:00:48;5.07;;;3.00;;
79149;SDS011;68563;45.644;13.782;2023-09-07T00:03:13;3.58;;;3.15;;
79149;SDS011;68563;45.644;13.782;2023-09-07T00:05:40;4.35;;;3.20;;
79149;SDS011;68563;45.644;13.782;2023-09-07T00:08:05;4.70;;;3.85;;
79149;SDS011;68563;45.644;13.782;2023-09-07T00:10:32;5.15;;;3.33;;
79149;SDS011;68563;45.644;13.782;2023-09-07T00:13:00;5.63;;;3.30;;
79149;SDS011;68563;45.644;13.782;2023-09-07T00:15:27;4.82;;;3.30;;
79149;SDS011;68563;45.644;13.782;2023-09-07T00:17:53;3.42;;;3.00;;
79149;SDS011;68563;45.644;13.782;2023-09-07T00:20:18;5.30;;;3.25;;
79149;SDS011;68563;45.644;13.782;2023-09-07T00:22:44;4.53;;;3.05;;
79149;SDS011;68563;45.644;13.782;2023-09-07T00:25:09;3.80;;;3.10;;
79149;SDS011;68563;45.644;13.782;2023-09-07T00:27:35;3.78;;;3.33;;
79149;SDS011;68563;45.644;13.782;2023-09-07T00:30:01;5.25;;;3.20;;
79149;SDS011;68563;45.644;13.782;2023-09-07T00:32:29;4.63;;;3.10;;
79149;SDS011;68563;45.644;13.782;2023-09-07T00:34:55;4.88;;;3.78;;
79149;SDS011;68563;45.644;13.782;2023-09-07T00:37:20;5.00;;;3.45;;
79149;SDS011;68563;45.644;13.782;2023-09-07T00:39:45;5.28;;;3.00;;
79149;SDS011;68563;45.644;13.782;2023-09-07T00:42:11;4.72;;;3.42;;
79149;SDS011;68563;45.644;13.782;2023-09-07T00:44:36;3.40;;;3.10;;
79149;SDS011;68563;45.644;13.782;2023-09-07T00:47:02;5.82;;;3.03;;
79149;SDS011;68563;45.644;13.782;2023-09-07T00:49:27;3.30;;;3.00;;
79149;SDS011;68563;45.644;13.782;2023-09-07T00:51:53;5.30;;;3.13;;
79149;SDS011;68563;45.644;13.782;2023-09-07T00:54:18;6.55;;;3.50;;
79149;SDS011;68563;45.644;13.782;2023-09-07T00:56:44;4.97;;;3.13;;
79149;SDS011;68563;45.644;13.782;2023-09-07T00:59:10;5.50;;;3.10;;
79149;SDS011;68563;45.644;13.782;2023-09-07T01:01:38;3.70;;;3.25;;
79149;SDS011;68563;45.644;13.782;2023-09-07T01:04:03;5.85;;;2.95;;
79149;SDS011;68563;45.644;13.782;2023-09-07T01:06:30;4.28;;;3.00;;
79149;SDS011;68563;45.644;13.782;2023-09-07T01:09:10;5.28;;;3.20;;
79149;SDS011;68563;45.644;13.782;2023-09-07T01:11:40;4.57;;;3.08;;
79149;SDS011;68563;45.644;13.782;2023-09-07T01:14:05;3.65;;;3.20;;
79149;SDS011;68563;45.644;13.782;2023-09-07T01:16:30;5.40;;;3.63;;
79149;SDS011;68563;45.644;13.782;2023-09-07T01:18:59;6.43;;;3.15;;
79149;SDS011;68563;45.644;13.782;2023-09-07T01:21:26;3.80;;;2.85;;
79149;SDS011;68563;45.644;13.782;2023-09-07T01:23:53;5.65;;;2.80;;
79149;SDS011;68563;45.644;13.782;2023-09-07T01:26:20;7.10;;;3.15;;
79149;SDS011;68563;45.644;13.782;2023-09-07T01:28:45;5.63;;;3.00;;
79149;SDS011;68563;45.644;13.782;2023-09-07T01:31:11;4.45;;;3.15;;
79149;SDS011;68563;45.644;13.782;2023-09-07T01:33:36;4.13;;;3.30;;
79149;SDS011;68563;45.644;13.782;2023-09-07T01:36:02;5.38;;;3.10;;
79149;SDS011;68563;45.644;13.782;2023-09-07T01:38:27;3.50;;;3.10;;
79149;SDS011;68563;45.644;13.782;2023-09-07T01:40:53;6.55;;;3.15;;
79149;SDS011;68563;45.644;13.782;2023-09-07T01:43:19;4.32;;;3.22;;
79149;SDS011;68563;45.644;13.782;2023-09-07T01:45:45;6.18;;;3.17;;
79149;SDS011;68563;45.644;13.782;2023-09-07T01:48:11;3.17;;;2.88;;
79149;SDS011;68563;45.644;13.782;2023-09-07T01:50:37;4.40;;;2.90;;
79149;SDS011;68563;45.644;13.782;2023-09-07T01:53:03;4.72;;;3.47;;
79149;SDS011;68563;45.644;13.782;2023-09-07T01:55:29;3.65;;;3.05;;
79149;SDS011;68563;45.644;13.782;2023-09-07T01:57:55;4.88;;;3.33;;
79149;SDS011;68563;45.644;13.782;2023-09-07T02:00:21;4.93;;;3.20;;
79149;SDS011;68563;45.644;13.782;2023-09-07T02:02:46;4.75;;;2.88;;
79149;SDS011;68563;45.644;13.782;2023-09-07T02:05:11;3.78;;;3.13;;
79149;SDS011;68563;45.644;13.782;2023-09-07T02:07:37;4.05;;;3.20;;
79149;SDS011;68563;45.644;13.782;2023-09-07T02:10:03;5.75;;;3.40;;
79149;SDS011;68563;45.644;13.782;2023-09-07T02:12:28;5.63;;;3.03;;
79149;SDS011;68563;45.644;13.782;2023-09-07T02:14:55;8.45;;;3.15;;
79149;SDS011;68563;45.644;13.782;2023-09-07T02:17:20;3.60;;;2.65;;
79149;SDS011;68563;45.644;13.782;2023-09-07T02:19:46;5.35;;;3.13;;
79149;SDS011;68563;45.644;13.782;2023-09-07T02:22:11;5.22;;;3.13;;
79149;SDS011;68563;45.644;13.782;2023-09-07T02:24:37;5.57;;;3.20;;
79149;SDS011;68563;45.644;13.782;2023-09-07T02:27:02;4.68;;;3.30;;
79149;SDS011;68563;45.644;13.782;2023-09-07T02:29:28;3.70;;;3.17;;
79149;SDS011;68563;45.644;13.782;2023-09-07T02:31:53;5.45;;;3.25;;
79149;SDS011;68563;45.644;13.782;2023-09-07T02:34:19;5.60;;;3.30;;
79149;SDS011;68563;45.644;13.782;2023-09-07T02:36:44;5.32;;;3.20;;
79149;SDS011;68563;45.644;13.782;2023-09-07T02:39:10;3.70;;;2.63;;
79149;SDS011;68563;45.644;13.782;2023-09-07T02:41:37;4.03;;;3.63;;
79149;SDS011;68563;45.644;13.782;2023-09-07T02:44:03;4.82;;;2.85;;
79149;SDS011;68563;45.644;13.782;2023-09-07T02:46:29;4.30;;;2.88;;
79149;SDS011;68563;45.644;13.782;2023-09-07T02:48:55;3.67;;;3.15;;
79149;SDS011;68563;45.644;13.782;2023-09-07T02:51:23;4.35;;;2.65;;
79149;SDS011;68563;45.644;13.782;2023-09-07T02:53:49;5.85;;;3.17;;
79149;SDS011;68563;45.644;13.782;2023-09-07T02:56:15;4.60;;;2.97;;
79149;SDS011;68563;45.644;13.782;2023-09-07T02:58:40;6.03;;;3.13;;
79149;SDS011;68563;45.644;13.782;2023-09-07T03:01:06;5.43;;;3.15;;
79149;SDS011;68563;45.644;13.782;2023-09-07T03:03:33;3.45;;;2.92;;
79149;SDS011;68563;45.644;13.782;2023-09-07T03:06:07;3.47;;;2.70;;
79149;SDS011;68563;45.644;13.782;2023-09-07T03:08:37;4.20;;;2.70;;
79149;SDS011;68563;45.644;13.782;2023-09-07T03:11:03;3.95;;;2.75;;
79149;SDS011;68563;45.644;13.782;2023-09-07T03:13:30;3.70;;;3.00;;
79149;SDS011;68563;45.644;13.782;2023-09-07T03:15:55;4.40;;;2.72;;
79149;SDS011;68563;45.644;13.782;2023-09-07T03:18:21;4.38;;;2.85;;
79149;SDS011;68563;45.644;13.782;2023-09-07T03:20:46;5.28;;;2.88;;
79149;SDS011;68563;45.644;13.782;2023-09-07T03:23:12;4.43;;;2.75;;
79149;SDS011;68563;45.644;13.782;2023-09-07T03:25:37;4.75;;;2.80;;
79149;SDS011;68563;45.644;13.782;2023-09-07T03:28:03;6.53;;;2.75;;
79149;SDS011;68563;45.644;13.782;2023-09-07T03:30:28;7.20;;;2.90;;
79149;SDS011;68563;45.644;13.782;2023-09-07T03:32:54;5.13;;;2.85;;
79149;SDS011;68563;45.644;13.782;2023-09-07T03:35:19;3.13;;;2.58;;
79149;SDS011;68563;45.644;13.782;2023-09-07T03:37:45;3.13;;;2.40;;
79149;SDS011;68563;45.644;13.782;2023-09-07T03:40:10;5.30;;;2.88;;
79149;SDS011;68563;45.644;13.782;2023-09-07T03:42:36;3.10;;;2.60;;
79149;SDS011;68563;45.644;13.782;2023-09-07T03:45:01;2.85;;;2.50;;
79149;SDS011;68563;45.644;13.782;2023-09-07T03:47:28;4.15;;;2.63;;
79149;SDS011;68563;45.644;13.782;2023-09-07T03:49:54;4.32;;;2.90;;
79149;SDS011;68563;45.644;13.782;2023-09-07T03:52:21;3.63;;;2.47;;
79149;SDS011;68563;45.644;13.782;2023-09-07T03:54:49;3.65;;;2.58;;
79149;SDS011;68563;45.644;13.782;2023-09-07T03:57:25;7.13;;;3.00;;
79149;SDS011;68563;45.644;13.782;2023-09-07T03:59:51;3.70;;;2.65;;
79149;SDS011;68563;45.644;13.782;2023-09-07T04:02:16;5.50;;;2.80;;
79149;SDS011;68563;45.644;13.782;2023-09-07T04:04:48;5.22;;;2.70;;
79149;SDS011;68563;45.644;13.782;2023-09-07T04:07:14;4.05;;;2.70;;
79149;SDS011;68563;45.644;13.782;2023-09-07T04:09:40;3.40;;;2.50;;
79149;SDS011;68563;45.644;13.782;2023-09-07T04:12:05;4.47;;;3.17;;
79149;SDS011;68563;45.644;13.782;2023-09-07T04:14:32;5.57;;;2.83;;
79149;SDS011;68563;45.644;13.782;2023-09-07T04:16:57;4.65;;;2.83;;
79149;SDS011;68563;45.644;13.782;2023-09-07T04:19:23;6.63;;;2.72;;
79149;SDS011;68563;45.644;13.782;2023-09-07T04:21:49;3.00;;;2.60;;
79149;SDS011;68563;45.644;13.782;2023-09-07T04:24:15;4.63;;;2.72;;
79149;SDS011;68563;45.644;13.782;2023-09-07T04:26:40;3.63;;;2.58;;
79149;SDS011;68563;45.644;13.782;2023-09-07T04:29:06;5.47;;;3.13;;
79149;SDS011;68563;45.644;13.782;2023-09-07T04:31:33;3.28;;;2.70;;
79149;SDS011;68563;45.644;13.782;2023-09-07T04:33:58;7.20;;;2.65;;
79149;SDS011;68563;45.644;13.782;2023-09-07T04:36:23;4.28;;;2.80;;
79149;SDS011;68563;45.644;13.782;2023-09-07T04:38:49;3.63;;;2.78;;
79149;SDS011;68563;45.644;13.782;2023-09-07T04:41:14;4.13;;;3.00;;
79149;SDS011;68563;45.644;13.782;2023-09-07T04:43:40;4.40;;;2.80;;
79149;SDS011;68563;45.644;13.782;2023-09-07T04:46:10;3.75;;;2.83;;
79149;SDS011;68563;45.644;13.782;2023-09-07T04:48:37;3.75;;;2.97;;
79149;SDS011;68563;45.644;13.782;2023-09-07T04:51:03;7.95;;;3.05;;
79149;SDS011;68563;45.644;13.782;2023-09-07T04:53:31;4.80;;;2.60;;
79149;SDS011;68563;45.644;13.782;2023-09-07T04:55:58;4.22;;;2.83;;
79149;SDS011;68563;45.644;13.782;2023-09-07T04:58:24;4.10;;;3.10;;
79149;SDS011;68563;45.644;13.782;2023-09-07T05:00:50;4.65;;;3.08;;
79149;SDS011;68563;45.644;13.782;2023-09-07T05:03:16;5.75;;;3.00;;
79149;SDS011;68563;45.644;13.782;2023-09-07T05:05:42;3.63;;;2.92;;
79149;SDS011;68563;45.644;13.782;2023-09-07T05:08:09;4.45;;;2.60;;
79149;SDS011;68563;45.644;13.782;2023-09-07T05:10:35;4.05;;;3.03;;
79149;SDS011;68563;45.644;13.782;2023-09-07T05:13:01;6.35;;;3.30;;
79149;SDS011;68563;45.644;13.782;2023-09-07T05:15:26;4.55;;;2.92;;
79149;SDS011;68563;45.644;13.782;2023-09-07T05:17:52;4.85;;;2.63;;
79149;SDS011;68563;45.644;13.782;2023-09-07T05:20:18;5.75;;;2.55;;
79149;SDS011;68563;45.644;13.782;2023-09-07T05:22:43;4.97;;;2.85;;
79149;SDS011;68563;45.644;13.782;2023-09-07T05:25:09;3.33;;;2.70;;
79149;SDS011;68563;45.644;13.782;2023-09-07T05:27:34;5.88;;;3.03;;
79149;SDS011;68563;45.644;13.782;2023-09-07T05:30:00;5.13;;;3.00;;
79149;SDS011;68563;45.644;13.782;2023-09-07T05:32:26;6.13;;;2.70;;
79149;SDS011;68563;45.644;13.782;2023-09-07T05:34:52;3.72;;;2.90;;
79149;SDS011;68563;45.644;13.782;2023-09-07T05:37:17;5.07;;;2.90;;
79149;SDS011;68563;45.644;13.782;2023-09-07T05:39:42;5.15;;;2.72;;
79149;SDS011;68563;45.644;13.782;2023-09-07T05:42:08;7.05;;;2.78;;
79149;SDS011;68563;45.644;13.782;2023-09-07T05:44:33;4.57;;;2.70;;
79149;SDS011;68563;45.644;13.782;2023-09-07T05:46:59;4.32;;;3.30;;
79149;SDS011;68563;45.644;13.782;2023-09-07T05:49:24;3.55;;;2.83;;
79149;SDS011;68563;45.644;13.782;2023-09-07T05:51:50;4.35;;;3.00;;
79149;SDS011;68563;45.644;13.782;2023-09-07T05:54:15;3.85;;;2.58;;
79149;SDS011;68563;45.644;13.782;2023-09-07T05:56:41;4.68;;;3.00;;
79149;SDS011;68563;45.644;13.782;2023-09-07T05:59:06;3.40;;;2.72;;
79149;SDS011;68563;45.644;13.782;2023-09-07T06:01:32;4.10;;;2.55;;
79149;SDS011;68563;45.644;13.782;2023-09-07T06:03:58;4.15;;;2.85;;
79149;SDS011;68563;45.644;13.782;2023-09-07T06:06:23;4.00;;;3.03;;
79149;SDS011;68563;45.644;13.782;2023-09-07T06:08:49;4.25;;;2.80;;
79149;SDS011;68563;45.644;13.782;2023-09-07T06:11:14;5.72;;;3.35;;
79149;SDS011;68563;45.644;13.782;2023-09-07T06:13:40;5.05;;;2.60;;
79149;SDS011;68563;45.644;13.782;2023-09-07T06:16:06;4.55;;;2.60;;
79149;SDS011;68563;45.644;13.782;2023-09-07T06:18:32;3.35;;;2.40;;
79149;SDS011;68563;45.644;13.782;2023-09-07T06:20:57;3.63;;;2.67;;
79149;SDS011;68563;45.644;13.782;2023-09-07T06:23:22;4.15;;;2.60;;
79149;SDS011;68563;45.644;13.782;2023-09-07T06:25:48;4.25;;;2.75;;
79149;SDS011;68563;45.644;13.782;2023-09-07T06:28:13;6.57;;;3.33;;
79149;SDS011;68563;45.644;13.782;2023-09-07T06:30:39;4.55;;;2.65;;
79149;SDS011;68563;45.644;13.782;2023-09-07T06:33:04;2.92;;;2.63;;
79149;SDS011;68563;45.644;13.782;2023-09-07T06:35:30;4.72;;;3.30;;
79149;SDS011;68563;45.644;13.782;2023-09-07T06:37:55;4.53;;;2.53;;
79149;SDS011;68563;45.644;13.782;2023-09-07T06:40:21;4.00;;;2.88;;
79149;SDS011;68563;45.644;13.782;2023-09-07T06:42:47;7.18;;;2.80;;
79149;SDS011;68563;45.644;13.782;2023-09-07T06:45:12;3.45;;;2.67;;
79149;SDS011;68563;45.644;13.782;2023-09-07T06:47:38;6.95;;;3.00;;
79149;SDS011;68563;45.644;13.782;2023-09-07T06:50:04;3.15;;;2.47;;
79149;SDS011;68563;45.644;13.782;2023-09-07T06:52:30;6.03;;;2.70;;
79149;SDS011;68563;45.644;13.782;2023-09-07T06:54:55;5.13;;;2.60;;
79149;SDS011;68563;45.644;13.782;2023-09-07T06:57:21;3.72;;;2.42;;
79149;SDS011;68563;45.644;13.782;2023-09-07T06:59:47;4.20;;;2.70;;
79149;SDS011;68563;45.644;13.782;2023-09-07T07:02:13;4.03;;;2.97;;
79149;SDS011;68563;45.644;13.782;2023-09-07T07:04:39;4.55;;;2.63;;
79149;SDS011;68563;45.644;13.782;2023-09-07T07:07:05;4.22;;;2.95;;
79149;SDS011;68563;45.644;13.782;2023-09-07T07:09:31;4.32;;;2.47;;
79149;SDS011;68563;45.644;13.782;2023-09-07T07:11:58;4.95;;;2.67;;
79149;SDS011;68563;45.644;13.782;2023-09-07T07:14:26;4.93;;;2.75;;
79149;SDS011;68563;45.644;13.782;2023-09-07T07:16:51;4.57;;;2.90;;
79149;SDS011;68563;45.644;13.782;2023-09-07T07:19:16;4.38;;;2.63;;
79149;SDS011;68563;45.644;13.782;2023-09-07T07:21:42;4.43;;;2.60;;
79149;SDS011;68563;45.644;13.782;2023-09-07T07:24:07;4.15;;;3.08;;
79149;SDS011;68563;45.644;13.782;2023-09-07T07:26:34;5.63;;;2.60;;
79149;SDS011;68563;45.644;13.782;2023-09-07T07:28:59;6.25;;;2.80;;
79149;SDS011;68563;45.644;13.782;2023-09-07T07:31:25;4.13;;;2.70;;
79149;SDS011;68563;45.644;13.782;2023-09-07T07:33:50;2.90;;;2.40;;
79149;SDS011;68563;45.644;13.782;2023-09-07T07:36:16;3.28;;;2.58;;
79149;SDS011;68563;45.644;13.782;2023-09-07T07:38:41;4.53;;;3.15;;
79149;SDS011;68563;45.644;13.782;2023-09-07T07:41:07;5.68;;;2.90;;
79149;SDS011;68563;45.644;13.782;2023-09-07T07:43:32;4.70;;;3.13;;
79149;SDS011;68563;45.644;13.782;2023-09-07T07:45:58;6.20;;;2.70;;
79149;SDS011;68563;45.644;13.782;2023-09-07T07:48:24;5.53;;;2.60;;
79149;SDS011;68563;45.644;13.782;2023-09-07T07:50:50;6.25;;;2.55;;
79149;SDS011;68563;45.644;13.782;2023-09-07T07:53:15;4.63;;;2.88;;
79149;SDS011;68563;45.644;13.782;2023-09-07T07:55:41;5.03;;;2.60;;
79149;SDS011;68563;45.644;13.782;2023-09-07T07:58:07;3.33;;;2.67;;
79149;SDS011;68563;45.644;13.782;2023-09-07T08:00:34;3.67;;;2.60;;
79149;SDS011;68563;45.644;13.782;2023-09-07T08:03:03;3.83;;;2.65;;
79149;SDS011;68563;45.644;13.782;2023-09-07T08:05:31;4.70;;;2.40;;
79149;SDS011;68563;45.644;13.782;2023-09-07T08:07:57;2.88;;;2.58;;
79149;SDS011;68563;45.644;13.782;2023-09-07T08:10:22;5.80;;;2.80;;
79149;SDS011;68563;45.644;13.782;2023-09-07T08:12:48;4.90;;;2.60;;
79149;SDS011;68563;45.644;13.782;2023-09-07T08:15:13;11.82;;;2.60;;
79149;SDS011;68563;45.644;13.782;2023-09-07T08:17:39;4.90;;;2.60;;
79149;SDS011;68563;45.644;13.782;2023-09-07T08:20:05;5.43;;;2.78;;
79149;SDS011;68563;45.644;13.782;2023-09-07T08:22:33;5.40;;;2.80;;
79149;SDS011;68563;45.644;13.782;2023-09-07T08:25:01;3.42;;;2.47;;
79149;SDS011;68563;45.644;13.782;2023-09-07T08:27:27;3.90;;;2.53;;
79149;SDS011;68563;45.644;13.782;2023-09-07T08:29:52;3.38;;;2.53;;
79149;SDS011;68563;45.644;13.782;2023-09-07T08:32:19;4.53;;;2.53;;
79149;SDS011;68563;45.644;13.782;2023-09-07T08:34:44;5.53;;;2.75;;
79149;SDS011;68563;45.644;13.782;2023-09-07T08:37:10;3.80;;;2.67;;
79149;SDS011;68563;45.644;13.782;2023-09-07T08:39:35;5.38;;;2.55;;
79149;SDS011;68563;45.644;13.782;2023-09-07T08:42:06;5.22;;;2.45;;
79149;SDS011;68563;45.644;13.782;2023-09-07T08:44:32;3.35;;;2.65;;
79149;SDS011;68563;45.644;13.782;2023-09-07T08:46:59;4.80;;;2.35;;
79149;SDS011;68563;45.644;13.782;2023-09-07T08:49:25;4.70;;;2.65;;
79149;SDS011;68563;45.644;13.782;2023-09-07T08:51:51;3.63;;;2.40;;
79149;SDS011;68563;45.644;13.782;2023-09-07T08:54:19;5.13;;;2.90;;
79149;SDS011;68563;45.644;13.782;2023-09-07T08:56:45;7.18;;;2.63;;
79149;SDS011;68563;45.644;13.782;2023-09-07T08:59:10;4.07;;;2.58;;
79149;SDS011;68563;45.644;13.782;2023-09-07T09:01:36;4.05;;;2.53;;
79149;SDS011;68563;45.644;13.782;2023-09-07T09:04:02;4.53;;;2.83;;
79149;SDS011;68563;45.644;13.782;2023-09-07T09:06:28;3.42;;;2.65;;
79149;SDS011;68563;45.644;13.782;2023-09-07T09:08:55;8.05;;;3.25;;
79149;SDS011;68563;45.644;13.782;2023-09-07T09:11:21;3.17;;;2.50;;
79149;SDS011;68563;45.644;13.782;2023-09-07T09:13:50;3.13;;;2.63;;
79149;SDS011;68563;45.644;13.782;2023-09-07T09:16:17;4.15;;;2.60;;
79149;SDS011;68563;45.644;13.782;2023-09-07T09:18:49;3.40;;;2.65;;
79149;SDS011;68563;45.644;13.782;2023-09-07T09:21:20;4.97;;;2.70;;
79149;SDS011;68563;45.644;13.782;2023-09-07T09:23:47;3.70;;;2.60;;
79149;SDS011;68563;45.644;13.782;2023-09-07T09:26:14;4.57;;;2.90;;
79149;SDS011;68563;45.644;13.782;2023-09-07T09:28:40;3.10;;;2.70;;
79149;SDS011;68563;45.644;13.782;2023-09-07T09:31:07;3.67;;;3.20;;
79149;SDS011;68563;45.644;13.782;2023-09-07T09:33:37;3.72;;;2.42;;
79149;SDS011;68563;45.644;13.782;2023-09-07T09:36:04;4.32;;;2.67;;
79149;SDS011;68563;45.644;13.782;2023-09-07T09:38:31;5.82;;;3.00;;
79149;SDS011;68563;45.644;13.782;2023-09-07T09:40:57;4.03;;;2.85;;
79149;SDS011;68563;45.644;13.782;2023-09-07T09:43:24;3.55;;;2.72;;
79149;SDS011;68563;45.644;13.782;2023-09-07T09:45:50;6.40;;;2.65;;
79149;SDS011;68563;45.644;13.782;2023-09-07T09:48:17;4.78;;;2.60;;
79149;SDS011;68563;45.644;13.782;2023-09-07T09:50:44;8.25;;;2.97;;
79149;SDS011;68563;45.644;13.782;2023-09-07T09:53:11;8.00;;;2.92;;
79149;SDS011;68563;45.644;13.782;2023-09-07T09:55:42;6.28;;;2.75;;
79149;SDS011;68563;45.644;13.782;2023-09-07T09:58:07;4.47;;;3.20;;
79149;SDS011;68563;45.644;13.782;2023-09-07T10:00:33;4.18;;;3.00;;
79149;SDS011;68563;45.644;13.782;2023-09-07T10:05:36;4.88;;;2.90;;
79149;SDS011;68563;45.644;13.782;2023-09-07T10:08:02;5.05;;;2.88;;
79149;SDS011;68563;45.644;13.782;2023-09-07T10:10:34;4.63;;;2.92;;
79149;SDS011;68563;45.644;13.782;2023-09-07T10:13:01;4.75;;;2.70;;
79149;SDS011;68563;45.644;13.782;2023-09-07T10:15:27;3.90;;;2.67;;
79149;SDS011;68563;45.644;13.782;2023-09-07T10:18:06;6.40;;;2.63;;
79149;SDS011;68563;45.644;13.782;2023-09-07T10:23:20;4.32;;;3.08;;
79149;SDS011;68563;45.644;13.782;2023-09-07T10:25:47;4.88;;;3.03;;
79149;SDS011;68563;45.644;13.782;2023-09-07T10:28:18;4.13;;;3.03;;
79149;SDS011;68563;45.644;13.782;2023-09-07T10:33:31;7.05;;;3.00;;
79149;SDS011;68563;45.644;13.782;2023-09-07T10:35:57;4.68;;;3.05;;
79149;SDS011;68563;45.644;13.782;2023-09-07T10:38:24;3.65;;;2.80;;
79149;SDS011;68563;45.644;13.782;2023-09-07T10:40:55;5.47;;;2.97;;
79149;SDS011;68563;45.644;13.782;2023-09-07T10:43:27;6.35;;;2.70;;
79149;SDS011;68563;45.644;13.782;2023-09-07T10:45:53;4.55;;;3.22;;
79149;SDS011;68563;45.644;13.782;2023-09-07T10:48:21;4.90;;;3.10;;
79149;SDS011;68563;45.644;13.782;2023-09-07T10:50:47;5.25;;;3.30;;
79149;SDS011;68563;45.644;13.782;2023-09-07T10:53:13;5.13;;;2.80;;
79149;SDS011;68563;45.644;13.782;2023-09-07T10:55:39;4.53;;;2.88;;
79149;SDS011;68563;45.644;13.782;2023-09-07T10:58:08;5.07;;;2.80;;
79149;SDS011;68563;45.644;13.782;2023-09-07T11:00:34;3.67;;;2.97;;
79149;SDS011;68563;45.644;13.782;2023-09-07T11:03:05;3.20;;;2.58;;
79149;SDS011;68563;45.644;13.782;2023-09-07T11:05:34;3.70;;;2.78;;
79149;SDS011;68563;45.644;13.782;2023-09-07T11:08:02;5.15;;;3.50;;
79149;SDS011;68563;45.644;13.782;2023-09-07T11:10:31;4.65;;;3.20;;
79149;SDS011;68563;45.644;13.782;2023-09-07T11:13:01;6.28;;;2.83;;
79149;SDS011;68563;45.644;13.782;2023-09-07T11:15:27;4.00;;;3.28;;
79149;SDS011;68563;45.644;13.782;2023-09-07T11:17:54;5.30;;;2.90;;
79149;SDS011;68563;45.644;13.782;2023-09-07T11:20:21;5.55;;;3.33;;
79149;SDS011;68563;45.644;13.782;2023-09-07T11:22:47;4.60;;;2.95;;
79149;SDS011;68563;45.644;13.782;2023-09-07T11:25:13;4.70;;;3.00;;
79149;SDS011;68563;45.644;13.782;2023-09-07T11:27:40;3.83;;;3.00;;
79149;SDS011;68563;45.644;13.782;2023-09-07T11:30:05;7.10;;;3.15;;
79149;SDS011;68563;45.644;13.782;2023-09-07T11:32:33;5.50;;;3.50;;
79149;SDS011;68563;45.644;13.782;2023-09-07T11:34:59;5.93;;;3.03;;
79149;SDS011;68563;45.644;13.782;2023-09-07T11:37:25;6.20;;;3.10;;
79149;SDS011;68563;45.644;13.782;2023-09-07T11:39:50;5.93;;;3.05;;
79149;SDS011;68563;45.644;13.782;2023-09-07T11:42:16;4.68;;;3.28;;
79149;SDS011;68563;45.644;13.782;2023-09-07T11:44:42;7.95;;;3.25;;
79149;SDS011;68563;45.644;13.782;2023-09-07T11:47:07;5.35;;;3.17;;
79149;SDS011;68563;45.644;13.782;2023-09-07T11:49:32;4.78;;;3.13;;
79149;SDS011;68563;45.644;13.782;2023-09-07T11:51:58;4.78;;;3.22;;
79149;SDS011;68563;45.644;13.782;2023-09-07T11:54:24;5.78;;;3.40;;
79149;SDS011;68563;45.644;13.782;2023-09-07T11:56:49;4.30;;;3.35;;
79149;SDS011;68563;45.644;13.782;2023-09-07T11:59:14;4.53;;;3.30;;
79149;SDS011;68563;45.644;13.782;2023-09-07T12:01:42;4.38;;;3.10;;
79149;SDS011;68563;45.644;13.782;2023-09-07T12:04:08;5.53;;;2.90;;
79149;SDS011;68563;45.644;13.782;2023-09-07T12:06:33;7.68;;;3.08;;
79149;SDS011;68563;45.644;13.782;2023-09-07T12:09:03;4.63;;;3.15;;
79149;SDS011;68563;45.644;13.782;2023-09-07T12:11:29;7.85;;;3.45;;
79149;SDS011;68563;45.644;13.782;2023-09-07T12:13:55;6.82;;;3.20;;
79149;SDS011;68563;45.644;13.782;2023-09-07T12:16:21;4.97;;;3.17;;
79149;SDS011;68563;45.644;13.782;2023-09-07T12:18:46;3.40;;;3.10;;
79149;SDS011;68563;45.644;13.782;2023-09-07T12:21:12;6.03;;;3.30;;
79149;SDS011;68563;45.644;13.782;2023-09-07T12:23:37;5.13;;;3.45;;
79149;SDS011;68563;45.644;13.782;2023-09-07T12:26:03;7.93;;;3.60;;
79149;SDS011;68563;45.644;13.782;2023-09-07T12:28:31;7.90;;;3.30;;
79149;SDS011;68563;45.644;13.782;2023-09-07T12:30:59;7.47;;;3.33;;
79149;SDS011;68563;45.644;13.782;2023-09-07T12:33:25;5.15;;;3.15;;
79149;SDS011;68563;45.644;13.782;2023-09-07T12:35:50;4.20;;;3.17;;
79149;SDS011;68563;45.644;13.782;2023-09-07T12:38:16;4.13;;;3.55;;
79149;SDS011;68563;45.644;13.782;2023-09-07T12:40:47;5.75;;;3.60;;
79149;SDS011;68563;45.644;13.782;2023-09-07T12:43:12;6.65;;;3.33;;
79149;SDS011;68563;45.644;13.782;2023-09-07T12:45:38;4.10;;;3.25;;
79149;SDS011;68563;45.644;13.782;2023-09-07T12:48:03;4.45;;;3.45;;
79149;SDS011;68563;45.644;13.782;2023-09-07T12:50:29;5.15;;;3.33;;
79149;SDS011;68563;45.644;13.782;2023-09-07T12:52:54;8.38;;;3.53;;
79149;SDS011;68563;45.644;13.782;2023-09-07T12:55:20;7.28;;;3.78;;
79149;SDS011;68563;45.644;13.782;2023-09-07T12:57:45;4.32;;;3.25;;
79149;SDS011;68563;45.644;13.782;2023-09-07T13:00:11;4.07;;;3.33;;
79149;SDS011;68563;45.644;13.782;2023-09-07T13:02:37;8.00;;;4.10;;
79149;SDS011;68563;45.644;13.782;2023-09-07T13:05:03;5.43;;;3.33;;
79149;SDS011;68563;45.644;13.782;2023-09-07T13:07:30;3.97;;;3.22;;
79149;SDS011;68563;45.644;13.782;2023-09-07T13:09:57;4.95;;;3.28;;
79149;SDS011;68563;45.644;13.782;2023-09-07T13:12:23;4.40;;;3.30;;
79149;SDS011;68563;45.644;13.782;2023-09-07T13:14:48;5.93;;;3.55;;
79149;SDS011;68563;45.644;13.782;2023-09-07T13:17:14;3.85;;;3.45;;
79149;SDS011;68563;45.644;13.782;2023-09-07T13:19:39;6.13;;;3.60;;
79149;SDS011;68563;45.644;13.782;2023-09-07T13:22:05;6.20;;;3.70;;
79149;SDS011;68563;45.644;13.782;2023-09-07T13:24:32;5.70;;;3.35;;
79149;SDS011;68563;45.644;13.782;2023-09-07T13:26:58;5.32;;;3.50;;
79149;SDS011;68563;45.644;13.782;2023-09-07T13:29:23;4.10;;;3.40;;
79149;SDS011;68563;45.644;13.782;2023-09-07T13:31:49;4.03;;;3.25;;
79149;SDS011;68563;45.644;13.782;2023-09-07T13:34:17;3.47;;;3.17;;
79149;SDS011;68563;45.644;13.782;2023-09-07T13:36:43;4.13;;;3.50;;
79149;SDS011;68563;45.644;13.782;2023-09-07T13:39:08;8.40;;;3.28;;
79149;SDS011;68563;45.644;13.782;2023-09-07T13:41:33;4.22;;;3.60;;
79149;SDS011;68563;45.644;13.782;2023-09-07T13:43:59;6.40;;;3.72;;
79149;SDS011;68563;45.644;13.782;2023-09-07T13:46:25;7.07;;;3.30;;
79149;SDS011;68563;45.644;13.782;2023-09-07T13:48:51;4.80;;;3.80;;
79149;SDS011;68563;45.644;13.782;2023-09-07T13:51:16;5.47;;;3.10;;
79149;SDS011;68563;45.644;13.782;2023-09-07T13:53:42;6.20;;;3.70;;
79149;SDS011;68563;45.644;13.782;2023-09-07T13:56:07;7.88;;;3.83;;
79149;SDS011;68563;45.644;13.782;2023-09-07T13:58:33;6.03;;;3.40;;
79149;SDS011;68563;45.644;13.782;2023-09-07T14:00:58;6.13;;;4.00;;
79149;SDS011;68563;45.644;13.782;2023-09-07T14:03:23;6.60;;;3.72;;
79149;SDS011;68563;45.644;13.782;2023-09-07T14:05:49;6.57;;;3.75;;
79149;SDS011;68563;45.644;13.782;2023-09-07T14:08:15;8.95;;;3.78;;
79149;SDS011;68563;45.644;13.782;2023-09-07T14:10:40;8.93;;;4.00;;
79149;SDS011;68563;45.644;13.782;2023-09-07T14:13:06;6.30;;;4.13;;
79149;SDS011;68563;45.644;13.782;2023-09-07T14:15:31;10.25;;;4.25;;
79149;SDS011;68563;45.644;13.782;2023-09-07T14:17:57;4.93;;;3.67;;
79149;SDS011;68563;45.644;13.782;2023-09-07T14:20:22;7.03;;;3.85;;
79149;SDS011;68563;45.644;13.782;2023-09-07T14:22:48;7.18;;;4.03;;
79149;SDS011;68563;45.644;13.782;2023-09-07T14:25:13;4.30;;;3.42;;
79149;SDS011;68563;45.644;13.782;2023-09-07T14:27:39;9.25;;;4.03;;
79149;SDS011;68563;45.644;13.782;2023-09-07T14:30:04;6.63;;;3.67;;
79149;SDS011;68563;45.644;13.782;2023-09-07T14:32:30;5.93;;;4.07;;
79149;SDS011;68563;45.644;13.782;2023-09-07T14:34:56;6.13;;;3.75;;